Time,TemperatureF,DewpointF,PressureIn,WindDirection,WindDirectionDegrees,WindSpeedMPH,WindSpeedGustMPH,Humidity,HourlyPrecipIn,Conditions,Clouds,dailyrainin,SoftwareType,DateUTC
2013-08-16 00:01:00,74.0,61.0,29.37,South,180,1.2,1.2,64,0.00,CLR,,0.00,WeatherDisplay:10.37,2013-08-16 05:01:00,
2013-08-16 00:06:00,74.0,61.5,29.38,South,180,2.3,2.3,65,0.00,CLR,,0.00,WeatherDisplay:10.37,2013-08-16 05:06:00,
2013-08-16 00:11:00,74.0,61.9,29.37,SE,135,1.2,1.2,66,0.00,CLR,,0.00,WeatherDisplay:10.37,2013-08-16 05:11:00,
2013-08-16 00:19:00,73.0,61.0,29.37,SSE,157,2.3,2.3,66,0.00,CLR,,0.00,WeatherDisplay:10.37,2013-08-16 05:19:00,
2013-08-16 00:24:00,74.0,61.5,29.37,East,90,2.3,2.3,65,0.00,CLR,,0.00,WeatherDisplay:10.37,2013-08-16 05:24:00,
2013-08-16 00:29:00,73.0,60.5,29.37,East,90,2.0,2.0,65,0.00,CLR,,0.00,WeatherDisplay:10.37,2013-08-16 05:29:00,
2013-08-16 00:34:00,73.0,60.5,29.37,South,180,2.3,2.3,65,0.00,CLR,,0.00,WeatherDisplay:10.37,2013-08-16 05:34:00,
2013-08-16 00:39:00,73.0,60.5,29.37,East,90,1.0,1.0,65,0.00,CLR,,0.00,WeatherDisplay:10.37,2013-08-16 05:39:00,
2013-08-16 00:44:00,73.0,60.5,29.37,East,90,3.5,0.0,65,0.00,CLR,,0.00,WeatherDisplay:10.37,2013-08-16 05:44:00,
2013-08-16 00:49:00,73.0,60.5,29.36,SSE,157,3.5,3.5,65,0.00,CLR,,0.00,WeatherDisplay:10.37,2013-08-16 05:49:00,
2013-08-16 00:54:00,73.0,60.5,29.36,SSE,157,2.3,2.3,65,0.00,CLR,,0.00,WeatherDisplay:10.37,2013-08-16 05:54:00,
2013-08-16 00:59:00,73.0,60.5,29.36,SE,135,1.2,1.2,65,0.00,CLR,,0.00,WeatherDisplay:10.37,2013-08-16 05:59:00,
2013-08-16 01:04:00,73.0,60.5,29.36,SE,135,2.3,2.3,65,0.00,CLR,,0.00,WeatherDisplay:10.37,2013-08-16 06:04:00,
2013-08-16 01:09:00,72.0,59.6,29.36,ESE,112,3.5,3.5,65,0.00,CLR,,0.00,WeatherDisplay:10.37,2013-08-16 06:09:00,
2013-08-16 01:14:00,72.0,59.6,29.35,SSE,157,2.3,2.3,65,0.00,CLR,,0.00,WeatherDisplay:10.37,2013-08-16 06:14:00,
2013-08-16 01:19:00,72.0,59.6,29.35,East,90,2.3,2.3,65,0.00,CLR,,0.00,WeatherDisplay:10.37,2013-08-16 06:19:00,
2013-08-16 01:24:00,72.0,59.6,29.35,ESE,112,1.2,0.0,65,0.00,CLR,,0.00,WeatherDisplay:10.37,2013-08-16 06:24:00,
2013-08-16 01:29:00,72.0,60.0,29.35,South,180,2.0,2.0,66,0.00,CLR,,0.00,WeatherDisplay:10.37,2013-08-16 06:29:00,
2013-08-16 01:35:00,72.0,60.0,29.35,SE,135,0.0,0.0,66,0.00,CLR,,0.00,WeatherDisplay:10.37,2013-08-16 06:35:00,
2013-08-16 01:40:00,72.0,60.4,29.35,ESE,112,0.0,0.0,67,0.00,CLR,,0.00,WeatherDisplay:10.37,2013-08-16 06:40:00,
2013-08-16 01:45:00,72.0,60.0,29.36,SSE,157,1.2,0.0,66,0.00,CLR,,0.00,WeatherDisplay:10.37,2013-08-16 06:45:00,
2013-08-16 01:50:00,72.0,60.4,29.35,East,90,3.5,3.5,67,0.00,CLR,,0.00,WeatherDisplay:10.37,2013-08-16 06:50:00,
2013-08-16 01:55:00,71.0,59.5,29.35,ESE,112,2.3,0.0,67,0.00,CLR,,0.00,WeatherDisplay:10.37,2013-08-16 06:55:00,
2013-08-16 02:00:00,71.0,59.9,29.35,ESE,112,1.2,1.9,68,0.00,CLR,,0.00,WeatherDisplay:10.37,2013-08-16 07:00:00,
2013-08-16 02:05:00,71.0,59.9,29.35,East,90,2.3,2.3,68,0.00,CLR,,0.00,WeatherDisplay:10.37,2013-08-16 07:05:00,
2013-08-16 02:10:00,71.0,59.9,29.35,East,90,1.0,1.0,68,0.00,CLR,,0.00,WeatherDisplay:10.37,2013-08-16 07:10:00,
2013-08-16 02:15:00,71.0,59.9,29.35,East,90,3.5,3.5,68,0.00,CLR,,0.00,WeatherDisplay:10.37,2013-08-16 07:15:00,
2013-08-16 02:20:00,71.0,59.9,29.35,SE,135,3.5,3.5,68,0.00,CLR,,0.00,WeatherDisplay:10.37,2013-08-16 07:20:00,
2013-08-16 02:25:00,71.0,59.9,29.35,SE,135,2.3,2.3,68,0.00,CLR,,0.00,WeatherDisplay:10.37,2013-08-16 07:25:00,
2013-08-16 02:30:00,71.0,60.3,29.35,East,90,1.2,1.2,69,0.00,CLR,,0.00,WeatherDisplay:10.37,2013-08-16 07:30:00,
2013-08-16 02:35:00,71.0,60.3,29.35,East,90,3.5,3.5,69,0.00,CLR,,0.00,WeatherDisplay:10.37,2013-08-16 07:35:00,
2013-08-16 02:40:00,71.0,60.3,29.35,East,90,3.5,3.5,69,0.00,CLR,,0.00,WeatherDisplay:10.37,2013-08-16 07:40:00,
2013-08-16 02:45:00,71.0,59.9,29.35,East,90,3.5,3.5,68,0.00,CLR,,0.00,WeatherDisplay:10.37,2013-08-16 07:45:00,
2013-08-16 02:50:00,71.0,60.3,29.35,ESE,112,2.3,2.3,69,0.00,CLR,,0.00,WeatherDisplay:10.37,2013-08-16 07:50:00,
2013-08-16 02:55:00,71.0,60.7,29.36,East,90,3.5,3.5,70,0.00,CLR,,0.00,WeatherDisplay:10.37,2013-08-16 07:55:00,
2013-08-16 03:00:00,71.0,60.3,29.36,East,90,2.3,2.3,69,0.00,CLR,,0.00,WeatherDisplay:10.37,2013-08-16 08:00:00,
2013-08-16 03:05:00,71.0,60.3,29.35,East,90,3.5,3.5,69,0.00,CLR,,0.00,WeatherDisplay:10.37,2013-08-16 08:05:00,
2013-08-16 03:10:00,70.0,59.8,29.36,East,90,4.6,4.6,70,0.00,CLR,,0.00,WeatherDisplay:10.37,2013-08-16 08:10:00,
2013-08-16 03:15:00,70.0,59.8,29.36,East,90,4.6,4.6,70,0.00,CLR,,0.00,WeatherDisplay:10.37,2013-08-16 08:15:00,
2013-08-16 03:20:00,70.0,59.8,29.36,East,90,3.5,3.5,70,0.00,CLR,,0.00,WeatherDisplay:10.37,2013-08-16 08:20:00,
2013-08-16 03:25:00,70.0,59.8,29.35,East,90,3.5,3.5,70,0.00,CLR,,0.00,WeatherDisplay:10.37,2013-08-16 08:25:00,
2013-08-16 03:30:00,70.0,59.8,29.36,East,90,3.5,3.5,70,0.00,CLR,,0.00,WeatherDisplay:10.37,2013-08-16 08:30:00,
2013-08-16 03:35:00,70.0,60.2,29.36,East,90,3.5,3.5,71,0.00,CLR,,0.00,WeatherDisplay:10.37,2013-08-16 08:35:00,
2013-08-16 03:40:00,70.0,60.2,29.36,East,90,4.0,4.0,71,0.00,CLR,,0.00,WeatherDisplay:10.37,2013-08-16 08:40:00,
2013-08-16 03:45:00,70.0,59.8,29.35,East,90,5.8,5.8,70,0.00,CLR,,0.00,WeatherDisplay:10.37,2013-08-16 08:45:00,
2013-08-16 03:50:00,70.0,59.8,29.35,East,90,5.0,5.0,70,0.00,CLR,,0.00,WeatherDisplay:10.37,2013-08-16 08:50:00,
2013-08-16 03:55:00,70.0,60.2,29.35,East,90,3.5,3.5,71,0.00,CLR,,0.00,WeatherDisplay:10.37,2013-08-16 08:55:00,
2013-08-16 04:00:00,70.0,59.8,29.36,East,90,3.5,3.5,70,0.00,CLR,,0.00,WeatherDisplay:10.37,2013-08-16 09:00:00,
2013-08-16 04:05:00,70.0,60.2,29.36,East,90,2.3,2.3,71,0.00,CLR,,0.00,WeatherDisplay:10.37,2013-08-16 09:05:00,
2013-08-16 04:10:00,70.0,60.2,29.36,East,90,3.5,3.5,71,0.00,CLR,,0.00,WeatherDisplay:10.37,2013-08-16 09:10:00,
2013-08-16 04:15:00,70.0,60.2,29.35,East,90,6.9,6.9,71,0.00,CLR,,0.00,WeatherDisplay:10.37,2013-08-16 09:15:00,
2013-08-16 04:20:00,70.0,60.2,29.36,East,90,3.5,3.5,71,0.00,CLR,,0.00,WeatherDisplay:10.37,2013-08-16 09:20:00,
2013-08-16 04:25:00,70.0,60.2,29.36,East,90,4.6,4.6,71,0.00,CLR,,0.00,WeatherDisplay:10.37,2013-08-16 09:25:00,
2013-08-16 04:30:00,70.0,60.2,29.36,East,90,3.5,3.5,71,0.00,CLR,,0.00,WeatherDisplay:10.37,2013-08-16 09:30:00,
2013-08-16 04:35:00,70.0,60.2,29.37,East,90,4.6,4.6,71,0.00,CLR,,0.00,WeatherDisplay:10.37,2013-08-16 09:35:00,
2013-08-16 04:40:00,70.0,60.2,29.37,SE,135,4.6,4.6,71,0.00,CLR,,0.00,WeatherDisplay:10.37,2013-08-16 09:40:00,
2013-08-16 04:45:00,70.0,60.2,29.38,NNW,337,10.4,10.4,71,0.00,CLR,,0.00,WeatherDisplay:10.37,2013-08-16 09:45:00,
2013-08-16 04:50:00,70.0,60.9,29.41,NW,315,10.4,10.4,73,0.00,CLR,,0.00,WeatherDisplay:10.37,2013-08-16 09:50:00,
2013-08-16 04:55:00,71.0,61.1,29.41,North,360,7.0,7.0,71,0.00,CLR,,0.00,WeatherDisplay:10.37,2013-08-16 09:55:00,
2013-08-16 05:00:00,73.0,59.7,29.43,NE,45,6.9,6.9,63,0.00,CLR,,0.00,WeatherDisplay:10.37,2013-08-16 10:00:00,
2013-08-16 05:05:00,73.0,59.7,29.43,NNW,337,12.0,12.0,63,0.00,CLR,,0.00,WeatherDisplay:10.37,2013-08-16 10:05:00,
2013-08-16 05:10:00,72.0,61.7,29.43,NE,45,9.2,9.2,70,0.00,CLR,,0.00,WeatherDisplay:10.37,2013-08-16 10:10:00,
2013-08-16 05:15:00,71.0,63.1,29.43,WNW,292,6.9,6.9,76,0.00,CLR,,0.00,WeatherDisplay:10.37,2013-08-16 10:15:00,
2013-08-16 05:20:00,70.0,63.2,29.43,WSW,247,9.2,9.2,79,0.00,CLR,,0.00,WeatherDisplay:10.37,2013-08-16 10:20:00,
2013-08-16 05:25:00,68.0,62.3,29.43,NNW,337,9.2,9.2,82,0.00,CLR,,0.00,WeatherDisplay:10.37,2013-08-16 10:25:00,
2013-08-16 05:30:00,68.0,62.6,29.43,NNW,337,5.0,5.0,83,0.00,CLR,,0.00,WeatherDisplay:10.37,2013-08-16 10:30:00,
2013-08-16 05:35:00,68.0,62.6,29.43,SE,135,3.5,3.5,83,0.00,CLR,,0.00,WeatherDisplay:10.37,2013-08-16 10:35:00,
2013-08-16 05:40:00,68.0,63.3,29.42,North,360,6.9,6.9,85,0.00,CLR,,0.00,WeatherDisplay:10.37,2013-08-16 10:40:00,
2013-08-16 05:45:00,67.0,63.3,29.41,NE,45,9.2,9.2,88,0.00,CLR,,0.00,WeatherDisplay:10.37,2013-08-16 10:45:00,
2013-08-16 05:50:00,67.0,64.0,29.39,NE,45,7.0,7.0,90,0.01,RA,,0.01,WeatherDisplay:10.37,2013-08-16 10:50:00,
2013-08-16 05:55:00,66.0,63.3,29.37,South,180,5.8,5.8,91,0.01,RA,,0.01,WeatherDisplay:10.37,2013-08-16 10:55:00,
2013-08-16 06:00:00,66.0,63.3,29.37,SE,135,5.8,5.8,91,0.01,,,0.01,WeatherDisplay:10.37,2013-08-16 11:00:00,
2013-08-16 06:05:00,67.0,64.3,29.37,East,90,1.2,1.2,91,0.01,CLR,,0.01,WeatherDisplay:10.37,2013-08-16 11:05:00,
2013-08-16 06:10:00,67.0,64.0,29.38,NE,45,0.0,0.0,90,0.01,CLR,,0.01,WeatherDisplay:10.37,2013-08-16 11:10:00,
2013-08-16 06:15:00,67.0,64.0,29.38,NE,45,0.0,0.0,90,0.01,CLR,,0.01,WeatherDisplay:10.37,2013-08-16 11:15:00,
2013-08-16 06:20:00,66.0,63.6,29.38,NE,45,0.0,0.0,92,0.01,CLR,,0.01,WeatherDisplay:10.37,2013-08-16 11:20:00,
2013-08-16 06:25:00,66.0,63.3,29.39,NW,315,2.3,2.3,91,0.01,CLR,,0.01,WeatherDisplay:10.37,2013-08-16 11:25:00,
2013-08-16 06:30:00,66.0,63.3,29.39,NW,315,0.0,0.0,91,0.01,CLR,,0.01,WeatherDisplay:10.37,2013-08-16 11:30:00,
2013-08-16 06:35:00,66.0,63.3,29.39,NW,315,0.0,0.0,91,0.01,CLR,,0.01,WeatherDisplay:10.37,2013-08-16 11:35:00,
2013-08-16 06:40:00,66.0,63.3,29.39,NW,315,0.0,0.0,91,0.01,CLR,,0.01,WeatherDisplay:10.37,2013-08-16 11:40:00,
2013-08-16 06:45:00,66.0,63.3,29.39,NW,315,0.0,0.0,91,0.01,CLR,,0.01,WeatherDisplay:10.37,2013-08-16 11:45:00,
2013-08-16 06:50:00,66.0,63.3,29.39,NW,315,0.0,0.0,91,0.00,CLR,,0.01,WeatherDisplay:10.37,2013-08-16 11:50:00,
2013-08-16 06:55:00,66.0,63.3,29.39,NW,315,0.0,0.0,91,0.00,CLR,,0.01,WeatherDisplay:10.37,2013-08-16 11:55:00,
2013-08-16 07:00:00,66.0,63.9,29.38,South,180,4.6,4.6,93,0.00,CLR,,0.01,WeatherDisplay:10.37,2013-08-16 12:00:00,
2013-08-16 07:05:00,66.0,64.2,29.37,SSW,202,2.3,0.0,94,0.01,RA,,0.02,WeatherDisplay:10.37,2013-08-16 12:05:00,
2013-08-16 07:10:00,66.0,64.2,29.37,SSW,202,0.0,0.0,94,0.01,RA,,0.02,WeatherDisplay:10.37,2013-08-16 12:10:00,
2013-08-16 07:15:00,66.0,65.4,29.37,SE,135,3.0,3.0,98,0.01,,,0.02,WeatherDisplay:10.37,2013-08-16 12:15:00,
2013-08-16 07:21:00,66.0,65.4,29.37,SE,135,0.0,0.0,98,0.01,CLR,,0.02,WeatherDisplay:10.37,2013-08-16 12:21:00,
2013-08-16 07:26:00,66.0,65.4,29.37,SE,135,0.0,0.0,98,0.01,CLR,,0.02,WeatherDisplay:10.37,2013-08-16 12:26:00,
2013-08-16 07:31:00,66.0,65.4,29.37,SE,135,0.0,0.0,98,0.01,CLR,,0.02,WeatherDisplay:10.37,2013-08-16 12:31:00,
2013-08-16 07:36:00,66.0,65.4,29.37,SE,135,0.0,0.0,98,0.01,CLR,,0.02,WeatherDisplay:10.37,2013-08-16 12:36:00,
2013-08-16 07:41:00,66.0,65.4,29.37,SE,135,0.0,0.0,98,0.01,CLR,,0.02,WeatherDisplay:10.37,2013-08-16 12:41:00,
2013-08-16 07:46:00,66.0,65.4,29.37,SE,135,0.0,0.0,98,0.01,CLR,,0.02,WeatherDisplay:10.37,2013-08-16 12:46:00,
2013-08-16 07:51:00,66.0,65.4,29.37,SE,135,0.0,0.0,98,0.01,CLR,,0.02,WeatherDisplay:10.37,2013-08-16 12:51:00,
2013-08-16 07:56:00,66.0,65.4,29.37,SE,135,0.0,0.0,98,0.01,CLR,,0.02,WeatherDisplay:10.37,2013-08-16 12:56:00,
2013-08-16 08:01:00,66.0,65.4,29.37,SE,135,0.0,0.0,98,0.01,CLR,,0.02,WeatherDisplay:10.37,2013-08-16 13:01:00,
2013-08-16 08:06:00,66.0,65.4,29.37,NE,45,0.0,0.0,98,0.00,CLR,,0.02,WeatherDisplay:10.37,2013-08-16 13:06:00,
2013-08-16 08:11:00,66.0,65.4,29.37,NE,45,0.0,0.0,98,0.00,CLR,,0.02,WeatherDisplay:10.37,2013-08-16 13:11:00,
2013-08-16 08:16:00,66.0,65.4,29.37,NE,45,0.0,0.0,98,0.00,CLR,,0.02,WeatherDisplay:10.37,2013-08-16 13:16:00,
2013-08-16 08:21:00,66.0,65.4,29.37,NE,45,0.0,0.0,98,0.00,CLR,,0.02,WeatherDisplay:10.37,2013-08-16 13:21:00,
2013-08-16 08:26:00,66.0,65.4,29.37,NE,45,0.0,0.0,98,0.00,CLR,,0.02,WeatherDisplay:10.37,2013-08-16 13:26:00,
2013-08-16 08:31:00,66.0,65.4,29.37,NE,45,0.0,0.0,98,0.00,CLR,,0.02,WeatherDisplay:10.37,2013-08-16 13:31:00,
2013-08-16 08:36:00,66.0,65.4,29.37,NE,45,0.0,0.0,98,0.00,CLR,,0.02,WeatherDisplay:10.37,2013-08-16 13:36:00,
2013-08-16 08:41:00,67.0,66.4,29.37,East,90,1.2,1.2,98,0.00,CLR,,0.02,WeatherDisplay:10.37,2013-08-16 13:41:00,
2013-08-16 08:46:00,67.0,66.1,29.37,NNE,22,0.0,0.0,97,0.00,CLR,,0.02,WeatherDisplay:10.37,2013-08-16 13:46:00,
2013-08-16 08:51:00,67.0,65.8,29.37,NNE,22,0.0,0.0,96,0.00,CLR,,0.02,WeatherDisplay:10.37,2013-08-16 13:51:00,
2013-08-16 08:56:00,68.0,66.8,29.37,ENE,67,1.2,1.2,96,0.00,CLR,,0.02,WeatherDisplay:10.37,2013-08-16 13:56:00,
2013-08-16 09:01:00,68.0,66.8,29.37,East,90,3.5,3.5,96,0.00,CLR,,0.02,WeatherDisplay:10.37,2013-08-16 14:01:00,
2013-08-16 09:06:00,68.0,66.5,29.37,East,90,4.6,4.6,95,0.00,CLR,,0.02,WeatherDisplay:10.37,2013-08-16 14:06:00,
2013-08-16 09:11:00,68.0,66.5,29.37,ESE,112,2.3,2.3,95,0.00,CLR,,0.02,WeatherDisplay:10.37,2013-08-16 14:11:00,
2013-08-16 09:16:00,68.0,66.5,29.37,East,90,6.0,6.0,95,0.00,CLR,,0.02,WeatherDisplay:10.37,2013-08-16 14:16:00,
2013-08-16 09:21:00,68.0,65.9,29.37,East,90,2.3,2.3,93,0.00,CLR,,0.02,WeatherDisplay:10.37,2013-08-16 14:21:00,
2013-08-16 09:26:00,68.0,65.9,29.38,ENE,67,3.5,3.5,93,0.00,CLR,,0.02,WeatherDisplay:10.37,2013-08-16 14:26:00,
2013-08-16 09:31:00,69.0,67.2,29.39,North,360,6.9,6.9,94,0.00,CLR,,0.02,WeatherDisplay:10.37,2013-08-16 14:31:00,
2013-08-16 09:36:00,69.0,67.2,29.40,South,180,0.0,0.0,94,0.00,CLR,,0.02,WeatherDisplay:10.37,2013-08-16 14:36:00,
2013-08-16 09:41:00,69.0,66.9,29.38,SSE,157,2.3,2.3,93,0.00,CLR,,0.02,WeatherDisplay:10.37,2013-08-16 14:41:00,
2013-08-16 09:46:00,69.0,67.2,29.37,SSW,202,2.3,2.3,94,0.00,CLR,,0.02,WeatherDisplay:10.37,2013-08-16 14:46:00,
2013-08-16 09:51:00,69.0,66.9,29.38,SSW,202,0.0,0.0,93,0.00,CLR,,0.02,WeatherDisplay:10.37,2013-08-16 14:51:00,
2013-08-16 09:56:00,69.0,66.6,29.38,South,180,0.0,0.0,92,0.00,CLR,,0.02,WeatherDisplay:10.37,2013-08-16 14:56:00,
2013-08-16 10:01:00,70.0,67.3,29.39,South,180,0.0,0.0,91,0.00,CLR,,0.02,WeatherDisplay:10.37,2013-08-16 15:01:00,
2013-08-16 10:06:00,70.0,66.6,29.41,NW,315,4.0,4.0,89,0.00,CLR,,0.02,WeatherDisplay:10.37,2013-08-16 15:06:00,
2013-08-16 10:11:00,70.0,66.6,29.39,NE,45,0.0,0.0,89,0.00,CLR,,0.02,WeatherDisplay:10.37,2013-08-16 15:11:00,
2013-08-16 10:16:00,71.0,66.9,29.38,ESE,112,0.0,0.0,87,0.00,CLR,,0.02,WeatherDisplay:10.37,2013-08-16 15:16:00,
2013-08-16 10:21:00,71.0,65.2,29.39,ESE,112,3.5,3.5,82,0.00,CLR,,0.02,WeatherDisplay:10.37,2013-08-16 15:21:00,
2013-08-16 10:26:00,71.0,64.5,29.38,East,90,4.0,4.0,80,0.00,CLR,,0.02,WeatherDisplay:10.37,2013-08-16 15:26:00,
2013-08-16 10:31:00,72.0,65.5,29.39,East,90,6.0,6.0,80,0.00,CLR,,0.02,WeatherDisplay:10.37,2013-08-16 15:31:00,
2013-08-16 10:36:00,72.0,64.8,29.39,East,90,3.5,3.5,78,0.00,CLR,,0.02,WeatherDisplay:10.37,2013-08-16 15:36:00,
2013-08-16 10:41:00,73.0,65.0,29.40,ENE,67,3.5,3.5,76,0.00,CLR,,0.02,WeatherDisplay:10.37,2013-08-16 15:41:00,
2013-08-16 10:46:00,73.0,64.2,29.41,ENE,67,4.6,4.6,74,0.00,CLR,,0.02,WeatherDisplay:10.37,2013-08-16 15:46:00,
2013-08-16 10:51:00,73.0,63.8,29.40,East,90,4.6,4.6,73,0.00,CLR,,0.02,WeatherDisplay:10.37,2013-08-16 15:51:00,
2013-08-16 10:56:00,73.0,63.8,29.40,East,90,2.3,2.3,73,0.00,CLR,,0.02,WeatherDisplay:10.37,2013-08-16 15:56:00,
2013-08-16 11:01:00,74.0,64.0,29.41,East,90,3.5,3.5,71,0.00,CLR,,0.02,WeatherDisplay:10.37,2013-08-16 16:01:00,
2013-08-16 11:06:00,74.0,64.4,29.41,East,90,3.5,3.5,72,0.00,CLR,,0.02,WeatherDisplay:10.37,2013-08-16 16:06:00,
2013-08-16 11:11:00,74.0,64.0,29.41,East,90,0.0,0.0,71,0.00,CLR,,0.02,WeatherDisplay:10.37,2013-08-16 16:11:00,
2013-08-16 11:16:00,74.0,63.6,29.42,East,90,2.3,2.3,70,0.00,CLR,,0.02,WeatherDisplay:10.37,2013-08-16 16:16:00,
2013-08-16 11:21:00,75.0,63.7,29.41,East,90,4.6,5.0,68,0.00,CLR,,0.02,WeatherDisplay:10.37,2013-08-16 16:21:00,
2013-08-16 11:26:00,75.0,64.5,29.41,North,360,2.3,2.3,70,0.00,CLR,,0.02,WeatherDisplay:10.37,2013-08-16 16:26:00,
2013-08-16 11:32:00,75.0,64.5,29.41,North,360,2.3,2.3,70,0.00,CLR,,0.02,WeatherDisplay:10.37,2013-08-16 16:32:00,
2013-08-16 11:37:00,76.0,64.2,29.41,East,90,0.0,0.0,67,0.00,CLR,,0.02,WeatherDisplay:10.37,2013-08-16 16:37:00,
2013-08-16 11:42:00,76.0,64.2,29.41,East,90,0.0,0.0,67,0.00,CLR,,0.02,WeatherDisplay:10.37,2013-08-16 16:42:00,
2013-08-16 11:47:00,77.0,64.8,29.41,NE,45,3.0,3.0,66,0.00,CLR,,0.02,WeatherDisplay:10.37,2013-08-16 16:47:00,
2013-08-16 11:52:00,77.0,64.8,29.41,NE,45,0.0,0.0,66,0.00,CLR,,0.02,WeatherDisplay:10.37,2013-08-16 16:52:00,
2013-08-16 11:57:00,78.0,64.4,29.41,East,90,4.0,4.0,63,0.00,CLR,,0.02,WeatherDisplay:10.37,2013-08-16 16:57:00,
2013-08-16 12:02:00,79.0,64.4,29.42,East,90,3.5,3.5,61,0.00,CLR,,0.02,WeatherDisplay:10.37,2013-08-16 17:02:00,
2013-08-16 12:07:00,80.0,64.4,29.42,East,90,1.2,1.2,59,0.00,CLR,,0.02,WeatherDisplay:10.37,2013-08-16 17:07:00,
2013-08-16 12:12:00,80.0,63.4,29.42,WNW,292,3.5,3.5,57,0.00,CLR,,0.02,WeatherDisplay:10.37,2013-08-16 17:12:00,
2013-08-16 12:17:00,81.0,63.8,29.42,NNW,337,2.3,2.3,56,0.00,CLR,,0.02,WeatherDisplay:10.37,2013-08-16 17:17:00,
2013-08-16 12:22:00,82.0,64.8,29.42,SSE,157,2.0,2.0,56,0.00,CLR,,0.02,WeatherDisplay:10.37,2013-08-16 17:22:00,
2013-08-16 12:27:00,83.0,63.6,29.42,South,180,3.5,3.5,52,0.00,CLR,,0.02,WeatherDisplay:10.37,2013-08-16 17:27:00,
2013-08-16 12:32:00,83.0,63.6,29.42,East,90,2.3,2.3,52,0.00,CLR,,0.02,WeatherDisplay:10.37,2013-08-16 17:32:00,
2013-08-16 12:37:00,83.0,63.6,29.42,East,90,2.3,2.3,52,0.00,CLR,,0.02,WeatherDisplay:10.37,2013-08-16 17:37:00,
2013-08-16 12:42:00,83.0,63.6,29.42,East,90,2.3,2.3,52,0.00,CLR,,0.02,WeatherDisplay:10.37,2013-08-16 17:42:00,
2013-08-16 12:47:00,83.0,63.6,29.42,East,90,2.3,2.3,52,0.00,CLR,,0.02,WeatherDisplay:10.37,2013-08-16 17:47:00,
2013-08-16 12:52:00,83.0,63.6,29.42,East,90,2.3,2.3,52,0.00,CLR,,0.02,WeatherDisplay:10.37,2013-08-16 17:52:00,
2013-08-16 12:57:00,83.0,63.6,29.42,East,90,2.3,2.3,52,0.00,CLR,,0.02,WeatherDisplay:10.37,2013-08-16 17:57:00,
2013-08-16 13:02:00,83.0,63.6,29.42,East,90,2.3,2.3,52,0.00,CLR,,0.02,WeatherDisplay:10.37,2013-08-16 18:02:00,
2013-08-16 13:07:00,86.0,62.8,29.43,WNW,292,2.3,2.3,46,0.00,CLR,,0.02,WeatherDisplay:10.37,2013-08-16 18:07:00,
2013-08-16 13:12:00,86.0,62.2,29.43,West,270,6.0,6.0,45,0.00,CLR,,0.02,WeatherDisplay:10.37,2013-08-16 18:12:00,
2013-08-16 13:17:00,85.0,63.1,29.43,NW,315,5.0,5.0,48,0.00,CLR,,0.02,WeatherDisplay:10.37,2013-08-16 18:17:00,
2013-08-16 13:22:00,86.0,63.4,29.43,NW,315,3.5,3.5,47,0.00,CLR,,0.02,WeatherDisplay:10.37,2013-08-16 18:22:00,
2013-08-16 13:27:00,86.0,62.2,29.43,WNW,292,4.6,5.0,45,0.00,CLR,,0.02,WeatherDisplay:10.37,2013-08-16 18:27:00,
2013-08-16 13:32:00,86.0,62.2,29.43,WNW,292,4.6,5.0,45,0.00,CLR,,0.02,WeatherDisplay:10.37,2013-08-16 18:32:00,
2013-08-16 13:37:00,85.0,62.5,29.42,NW,315,7.0,7.0,47,0.00,CLR,,0.02,WeatherDisplay:10.37,2013-08-16 18:37:00,
2013-08-16 13:42:00,85.0,61.9,29.42,North,360,4.0,4.0,46,0.00,CLR,,0.02,WeatherDisplay:10.37,2013-08-16 18:42:00,
2013-08-16 13:47:00,85.0,61.9,29.42,NE,45,0.0,0.0,46,0.00,CLR,,0.02,WeatherDisplay:10.37,2013-08-16 18:47:00,
2013-08-16 13:52:00,86.0,61.5,29.42,NW,315,6.0,6.0,44,0.00,CLR,,0.02,WeatherDisplay:10.37,2013-08-16 18:52:00,
2013-08-16 13:57:00,85.0,60.6,29.42,North,360,1.2,1.2,44,0.00,CLR,,0.02,WeatherDisplay:10.37,2013-08-16 18:57:00,
2013-08-16 14:02:00,85.0,61.9,29.41,ENE,67,3.5,3.5,46,0.00,CLR,,0.02,WeatherDisplay:10.37,2013-08-16 19:02:00,
2013-08-16 14:07:00,86.0,62.8,29.41,NNE,22,1.2,1.2,46,0.00,CLR,,0.02,WeatherDisplay:10.37,2013-08-16 19:07:00,
2013-08-16 14:12:00,86.0,62.2,29.41,South,180,3.0,3.0,45,0.00,CLR,,0.02,WeatherDisplay:10.37,2013-08-16 19:12:00,
2013-08-16 14:17:00,86.0,60.2,29.41,WNW,292,10.0,10.0,42,0.00,CLR,,0.02,WeatherDisplay:10.37,2013-08-16 19:17:00,
2013-08-16 14:22:00,86.0,61.5,29.41,North,360,6.9,6.9,44,0.00,CLR,,0.02,WeatherDisplay:10.37,2013-08-16 19:22:00,
2013-08-16 14:27:00,86.0,61.5,29.41,NW,315,7.0,7.0,44,0.00,CLR,,0.02,WeatherDisplay:10.37,2013-08-16 19:27:00,
2013-08-16 14:32:00,86.0,61.5,29.41,North,360,4.6,4.6,44,0.00,CLR,,0.02,WeatherDisplay:10.37,2013-08-16 19:32:00,
2013-08-16 14:37:00,87.0,61.8,29.40,NE,45,3.5,3.5,43,0.00,CLR,,0.02,WeatherDisplay:10.37,2013-08-16 19:37:00,
2013-08-16 14:42:00,87.0,61.8,29.40,North,360,1.2,1.2,43,0.00,CLR,,0.02,WeatherDisplay:10.37,2013-08-16 19:42:00,
2013-08-16 14:47:00,87.0,61.8,29.40,North,360,1.2,1.2,43,0.00,CLR,,0.02,WeatherDisplay:10.37,2013-08-16 19:47:00,
2013-08-16 14:52:00,87.0,61.1,29.40,NNW,337,7.0,7.0,42,0.00,CLR,,0.02,WeatherDisplay:10.37,2013-08-16 19:52:00,
2013-08-16 14:57:00,87.0,61.8,29.40,NW,315,7.0,7.0,43,0.00,CLR,,0.02,WeatherDisplay:10.37,2013-08-16 19:57:00,
2013-08-16 15:02:00,87.0,61.1,29.40,ESE,112,6.9,6.9,42,0.00,CLR,,0.02,WeatherDisplay:10.37,2013-08-16 20:02:00,
2013-08-16 15:07:00,88.0,62.0,29.40,East,90,9.0,9.0,42,0.00,CLR,,0.02,WeatherDisplay:10.37,2013-08-16 20:07:00,
2013-08-16 15:13:00,88.0,62.0,29.40,NW,315,9.2,9.2,42,0.00,CLR,,0.02,WeatherDisplay:10.37,2013-08-16 20:13:00,
2013-08-16 15:18:00,87.0,61.1,29.40,North,360,9.0,9.0,42,0.00,CLR,,0.02,WeatherDisplay:10.37,2013-08-16 20:18:00,
2013-08-16 15:23:00,87.0,61.1,29.40,North,360,9.2,9.2,42,0.00,CLR,,0.02,WeatherDisplay:10.37,2013-08-16 20:23:00,
2013-08-16 15:28:00,87.0,61.1,29.40,North,360,9.2,9.2,42,0.00,CLR,,0.02,WeatherDisplay:10.37,2013-08-16 20:28:00,
2013-08-16 15:33:00,87.0,61.1,29.39,ENE,67,12.0,12.0,42,0.00,CLR,,0.02,WeatherDisplay:10.37,2013-08-16 20:33:00,
2013-08-16 15:38:00,87.0,61.1,29.39,ENE,67,11.5,12.0,42,0.00,CLR,,0.02,WeatherDisplay:10.37,2013-08-16 20:38:00,
2013-08-16 15:43:00,87.0,61.1,29.39,ENE,67,11.5,12.0,42,0.00,CLR,,0.02,WeatherDisplay:10.37,2013-08-16 20:43:00,
2013-08-16 15:48:00,87.0,61.1,29.39,ENE,67,11.5,12.0,42,0.00,CLR,,0.02,WeatherDisplay:10.37,2013-08-16 20:48:00,
2013-08-16 15:53:00,87.0,61.1,29.39,ENE,67,11.5,12.0,42,0.00,CLR,,0.02,WeatherDisplay:10.37,2013-08-16 20:53:00,
2013-08-16 15:58:00,88.0,61.3,29.39,East,90,8.1,8.1,41,0.00,CLR,,0.02,WeatherDisplay:10.37,2013-08-16 20:58:00,
2013-08-16 16:03:00,88.0,61.3,29.39,NE,45,8.1,8.1,41,0.00,CLR,,0.02,WeatherDisplay:10.37,2013-08-16 21:03:00,
2013-08-16 16:08:00,88.0,61.3,29.40,North,360,9.2,9.2,41,0.00,CLR,,0.02,WeatherDisplay:10.37,2013-08-16 21:08:00,
2013-08-16 16:13:00,88.0,61.3,29.40,North,360,9.2,9.2,41,0.00,CLR,,0.02,WeatherDisplay:10.37,2013-08-16 21:13:00,
2013-08-16 16:18:00,89.0,61.5,29.39,NNE,22,3.5,3.5,40,0.00,CLR,,0.02,WeatherDisplay:10.37,2013-08-16 21:18:00,
2013-08-16 16:23:00,89.0,61.5,29.39,ENE,67,4.6,5.0,40,0.00,CLR,,0.02,WeatherDisplay:10.37,2013-08-16 21:23:00,
2013-08-16 16:28:00,89.0,60.8,29.39,ESE,112,4.0,4.0,39,0.00,CLR,,0.02,WeatherDisplay:10.37,2013-08-16 21:28:00,
2013-08-16 16:33:00,88.0,60.7,29.39,NE,45,5.8,5.8,40,0.00,CLR,,0.02,WeatherDisplay:10.37,2013-08-16 21:33:00,
2013-08-16 16:38:00,89.0,61.5,29.39,SE,135,0.0,0.0,40,0.00,CLR,,0.02,WeatherDisplay:10.37,2013-08-16 21:38:00,
2013-08-16 16:43:00,89.0,60.8,29.39,NNW,337,5.8,5.8,39,0.00,CLR,,0.02,WeatherDisplay:10.37,2013-08-16 21:43:00,
2013-08-16 16:48:00,89.0,60.1,29.39,East,90,5.0,5.0,38,0.00,CLR,,0.02,WeatherDisplay:10.37,2013-08-16 21:48:00,
2013-08-16 16:53:00,88.0,60.7,29.39,East,90,9.2,9.2,40,0.00,CLR,,0.02,WeatherDisplay:10.37,2013-08-16 21:53:00,
2013-08-16 16:58:00,88.0,60.7,29.39,North,360,4.0,4.0,40,0.00,CLR,,0.02,WeatherDisplay:10.37,2013-08-16 21:58:00,
2013-08-16 17:03:00,88.0,59.9,29.39,East,90,7.0,7.0,39,0.00,CLR,,0.02,WeatherDisplay:10.37,2013-08-16 22:03:00,
2013-08-16 17:08:00,88.0,60.7,29.39,East,90,5.8,0.0,40,0.00,CLR,,0.02,WeatherDisplay:10.37,2013-08-16 22:08:00,
2013-08-16 17:13:00,88.0,60.7,29.39,East,90,2.3,2.3,40,0.00,CLR,,0.02,WeatherDisplay:10.37,2013-08-16 22:13:00,
2013-08-16 17:18:00,88.0,59.9,29.39,NNE,22,2.3,2.3,39,0.00,CLR,,0.02,WeatherDisplay:10.37,2013-08-16 22:18:00,
2013-08-16 17:23:00,88.0,59.9,29.39,NNE,22,2.3,2.3,39,0.00,CLR,,0.02,WeatherDisplay:10.37,2013-08-16 22:23:00,
2013-08-16 17:28:00,88.0,59.9,29.39,NNE,22,2.3,2.3,39,0.00,CLR,,0.02,WeatherDisplay:10.37,2013-08-16 22:28:00,
2013-08-16 17:34:00,88.0,59.9,29.39,NNE,22,2.3,2.3,39,0.00,CLR,,0.02,WeatherDisplay:10.37,2013-08-16 22:34:00,
2013-08-16 17:39:00,88.0,59.2,29.39,NNW,337,5.0,5.0,38,0.00,CLR,,0.02,WeatherDisplay:10.37,2013-08-16 22:39:00,
2013-08-16 17:44:00,88.0,59.2,29.39,NE,45,6.9,6.9,38,0.00,CLR,,0.02,WeatherDisplay:10.37,2013-08-16 22:44:00,
2013-08-16 17:49:00,87.0,59.8,29.39,ESE,112,9.2,9.2,40,0.00,CLR,,0.02,WeatherDisplay:10.37,2013-08-16 22:49:00,
2013-08-16 17:54:00,87.0,59.8,29.39,NE,45,3.5,3.5,40,0.00,CLR,,0.02,WeatherDisplay:10.37,2013-08-16 22:54:00,
2013-08-16 17:59:00,87.0,59.0,29.39,NE,45,3.5,3.5,39,0.00,CLR,,0.02,WeatherDisplay:10.37,2013-08-16 22:59:00,
2013-08-16 18:04:00,87.0,59.0,29.39,East,90,5.0,5.2,39,0.00,CLR,,0.02,WeatherDisplay:10.37,2013-08-16 23:04:00,
2013-08-16 18:09:00,87.0,59.8,29.38,East,90,5.8,5.8,40,0.00,CLR,,0.02,WeatherDisplay:10.37,2013-08-16 23:09:00,
2013-08-16 18:14:00,87.0,59.8,29.38,ENE,67,6.0,6.0,40,0.00,CLR,,0.02,WeatherDisplay:10.37,2013-08-16 23:14:00,
2013-08-16 18:19:00,87.0,59.0,29.38,ESE,112,2.3,2.3,39,0.00,CLR,,0.02,WeatherDisplay:10.37,2013-08-16 23:19:00,
2013-08-16 18:24:00,87.0,59.0,29.38,East,90,6.0,6.0,39,0.00,CLR,,0.02,WeatherDisplay:10.37,2013-08-16 23:24:00,
2013-08-16 18:29:00,87.0,59.8,29.38,East,90,7.0,7.0,40,0.00,CLR,,0.02,WeatherDisplay:10.37,2013-08-16 23:29:00,
2013-08-16 18:34:00,87.0,59.8,29.38,ENE,67,4.6,4.6,40,0.00,CLR,,0.02,WeatherDisplay:10.37,2013-08-16 23:34:00,
2013-08-16 18:39:00,87.0,59.8,29.38,NNW,337,5.0,5.0,40,0.00,CLR,,0.02,WeatherDisplay:10.37,2013-08-16 23:39:00,
2013-08-16 18:44:00,87.0,59.8,29.38,ENE,67,4.6,4.6,40,0.00,CLR,,0.02,WeatherDisplay:10.37,2013-08-16 23:44:00,
2013-08-16 18:49:00,86.0,58.9,29.38,NE,45,9.0,9.0,40,0.00,CLR,,0.02,WeatherDisplay:10.37,2013-08-16 23:49:00,
2013-08-16 18:54:00,86.0,58.9,29.38,East,90,3.5,3.5,40,0.00,CLR,,0.02,WeatherDisplay:10.37,2013-08-16 23:54:00,
2013-08-16 18:59:00,86.0,59.6,29.38,East,90,7.0,7.0,41,0.00,CLR,,0.02,WeatherDisplay:10.37,2013-08-16 23:59:00,
2013-08-16 19:04:00,86.0,60.2,29.38,North,360,6.0,6.0,42,0.00,CLR,,0.02,WeatherDisplay:10.37,2013-08-17 00:04:00,
2013-08-16 19:09:00,85.0,59.3,29.38,East,90,6.0,6.0,42,0.00,CLR,,0.02,WeatherDisplay:10.37,2013-08-17 00:09:00,
2013-08-16 19:14:00,85.0,59.3,29.38,NE,45,6.0,6.0,42,0.00,CLR,,0.02,WeatherDisplay:10.37,2013-08-17 00:14:00,
2013-08-16 19:19:00,84.0,59.7,29.38,ESE,112,10.4,10.4,44,0.00,CLR,,0.02,WeatherDisplay:10.37,2013-08-17 00:19:00,
2013-08-16 19:24:00,84.0,59.7,29.39,SE,135,5.8,5.8,44,0.00,CLR,,0.02,WeatherDisplay:10.37,2013-08-17 00:24:00,
2013-08-16 19:29:00,84.0,59.7,29.38,East,90,6.9,6.9,44,0.00,CLR,,0.02,WeatherDisplay:10.37,2013-08-17 00:29:00,
2013-08-16 19:34:00,83.0,58.8,29.38,East,90,3.5,3.5,44,0.00,CLR,,0.02,WeatherDisplay:10.37,2013-08-17 00:34:00,
2013-08-16 19:39:00,83.0,59.5,29.38,East,90,6.0,6.0,45,0.00,CLR,,0.02,WeatherDisplay:10.37,2013-08-17 00:39:00,
2013-08-16 19:44:00,83.0,60.1,29.39,East,90,6.9,6.9,46,0.00,CLR,,0.02,WeatherDisplay:10.37,2013-08-17 00:44:00,
2013-08-16 19:49:00,82.0,59.2,29.39,ESE,112,5.8,5.8,46,0.00,CLR,,0.02,WeatherDisplay:10.37,2013-08-17 00:49:00,
2013-08-16 19:54:00,82.0,59.2,29.39,ENE,67,5.8,5.8,46,0.00,CLR,,0.02,WeatherDisplay:10.37,2013-08-17 00:54:00,
2013-08-16 19:59:00,82.0,59.8,29.38,ENE,67,6.0,6.0,47,0.00,CLR,,0.02,WeatherDisplay:10.37,2013-08-17 00:59:00,
2013-08-16 20:04:00,81.0,58.9,29.38,East,90,8.1,8.1,47,0.00,CLR,,0.02,WeatherDisplay:10.37,2013-08-17 01:04:00,
2013-08-16 20:09:00,81.0,59.5,29.38,East,90,4.0,4.0,48,0.00,CLR,,0.02,WeatherDisplay:10.37,2013-08-17 01:09:00,
2013-08-16 20:14:00,81.0,60.0,29.39,ENE,67,5.8,5.8,49,0.00,CLR,,0.02,WeatherDisplay:10.37,2013-08-17 01:14:00,
2013-08-16 20:19:00,81.0,60.0,29.39,East,90,4.0,4.0,49,0.00,CLR,,0.02,WeatherDisplay:10.37,2013-08-17 01:19:00,
2013-08-16 20:24:00,80.0,60.2,29.39,ENE,67,4.6,4.6,51,0.00,CLR,,0.02,WeatherDisplay:10.37,2013-08-17 01:24:00,
2013-08-16 20:29:00,80.0,60.2,29.39,East,90,4.6,4.6,51,0.00,CLR,,0.02,WeatherDisplay:10.37,2013-08-17 01:29:00,
2013-08-16 20:34:00,79.0,59.9,29.39,East,90,6.0,6.0,52,0.00,CLR,,0.02,WeatherDisplay:10.37,2013-08-17 01:34:00,
2013-08-16 20:39:00,79.0,59.9,29.39,East,90,3.5,3.5,52,0.00,CLR,,0.02,WeatherDisplay:10.37,2013-08-17 01:39:00,
2013-08-16 20:44:00,79.0,60.4,29.39,East,90,5.8,5.8,53,0.00,CLR,,0.02,WeatherDisplay:10.37,2013-08-17 01:44:00,
2013-08-16 20:49:00,79.0,60.4,29.39,East,90,5.0,5.0,53,0.00,CLR,,0.02,WeatherDisplay:10.37,2013-08-17 01:49:00,
2013-08-16 20:54:00,79.0,60.4,29.39,ENE,67,9.2,9.2,53,0.00,CLR,,0.02,WeatherDisplay:10.37,2013-08-17 01:54:00,
2013-08-16 20:59:00,78.0,59.5,29.39,ESE,112,5.8,5.8,53,0.00,CLR,,0.02,WeatherDisplay:10.37,2013-08-17 01:59:00,
2013-08-16 21:04:00,78.0,60.0,29.39,SE,135,5.8,5.8,54,0.00,CLR,,0.02,WeatherDisplay:10.37,2013-08-17 02:04:00,
2013-08-16 21:09:00,78.0,60.5,29.40,East,90,5.8,5.8,55,0.00,CLR,,0.02,WeatherDisplay:10.37,2013-08-17 02:09:00,
2013-08-16 21:14:00,78.0,61.0,29.40,ESE,112,6.0,6.0,56,0.00,CLR,,0.02,WeatherDisplay:10.37,2013-08-17 02:14:00,
2013-08-16 21:19:00,77.0,60.1,29.40,ENE,67,6.0,6.0,56,0.00,CLR,,0.02,WeatherDisplay:10.37,2013-08-17 02:19:00,
2013-08-16 21:24:00,77.0,61.1,29.40,ESE,112,8.1,8.1,58,0.00,CLR,,0.02,WeatherDisplay:10.37,2013-08-17 02:24:00,
2013-08-16 21:29:00,77.0,61.1,29.40,East,90,6.0,6.0,58,0.00,CLR,,0.02,WeatherDisplay:10.37,2013-08-17 02:29:00,
2013-08-16 21:34:00,76.0,60.2,29.40,East,90,7.0,7.0,58,0.00,CLR,,0.02,WeatherDisplay:10.37,2013-08-17 02:34:00,
2013-08-16 21:39:00,76.0,60.6,29.41,East,90,5.0,5.5,59,0.00,CLR,,0.02,WeatherDisplay:10.37,2013-08-17 02:39:00,
2013-08-16 21:44:00,76.0,60.2,29.41,East,90,9.2,9.2,58,0.00,CLR,,0.02,WeatherDisplay:10.37,2013-08-17 02:44:00,
2013-08-16 21:49:00,76.0,60.2,29.41,East,90,4.6,5.1,58,0.00,CLR,,0.02,WeatherDisplay:10.37,2013-08-17 02:49:00,
2013-08-16 21:55:00,76.0,60.2,29.41,ENE,67,5.8,5.8,58,0.00,CLR,,0.02,WeatherDisplay:10.37,2013-08-17 02:55:00,
2013-08-16 22:00:00,76.0,60.2,29.41,East,90,3.5,3.5,58,0.00,CLR,,0.02,WeatherDisplay:10.37,2013-08-17 03:00:00,
2013-08-16 22:05:00,75.0,59.7,29.41,ESE,112,6.0,6.0,59,0.00,CLR,,0.02,WeatherDisplay:10.37,2013-08-17 03:05:00,
2013-08-16 22:10:00,75.0,59.7,29.42,SE,135,6.9,6.9,59,0.00,CLR,,0.02,WeatherDisplay:10.37,2013-08-17 03:10:00,
2013-08-16 22:15:00,75.0,60.2,29.42,East,90,8.1,8.1,60,0.00,CLR,,0.02,WeatherDisplay:10.37,2013-08-17 03:15:00,
2013-08-16 22:20:00,75.0,59.7,29.42,SE,135,5.8,5.8,59,0.00,CLR,,0.02,WeatherDisplay:10.37,2013-08-17 03:20:00,
2013-08-16 22:25:00,75.0,60.2,29.43,East,90,9.0,9.0,60,0.00,CLR,,0.02,WeatherDisplay:10.37,2013-08-17 03:25:00,
2013-08-16 22:30:00,75.0,60.2,29.43,East,90,6.0,6.7,60,0.00,CLR,,0.02,WeatherDisplay:10.37,2013-08-17 03:30:00,
2013-08-16 22:35:00,74.0,59.2,29.43,East,90,7.0,7.0,60,0.00,CLR,,0.02,WeatherDisplay:10.37,2013-08-17 03:35:00,
2013-08-16 22:40:00,74.0,59.7,29.43,ESE,112,6.0,6.0,61,0.00,CLR,,0.02,WeatherDisplay:10.37,2013-08-17 03:40:00,
2013-08-16 22:45:00,74.0,59.7,29.43,East,90,6.9,6.9,61,0.00,CLR,,0.02,WeatherDisplay:10.37,2013-08-17 03:45:00,
2013-08-16 22:50:00,74.0,59.7,29.43,ENE,67,7.0,7.0,61,0.00,CLR,,0.02,WeatherDisplay:10.37,2013-08-17 03:50:00,
2013-08-16 22:55:00,74.0,59.7,29.43,ENE,67,7.0,7.0,61,0.00,CLR,,0.02,WeatherDisplay:10.37,2013-08-17 03:55:00,
2013-08-16 23:00:00,73.0,58.8,29.43,ENE,67,6.9,6.9,61,0.00,CLR,,0.02,WeatherDisplay:10.37,2013-08-17 04:00:00,
2013-08-16 23:01:00,73.0,58.8,29.43,East,90,6.9,6.9,61,0.00,CLR,,0.02,WeatherDisplay:10.37,2013-08-17 04:01:00,
2013-08-16 23:06:00,73.0,58.8,29.43,ESE,112,5.0,5.0,61,0.00,CLR,,0.02,WeatherDisplay:10.37,2013-08-17 04:06:00,
2013-08-16 23:11:00,73.0,58.8,29.43,SE,135,3.5,3.8,61,0.00,CLR,,0.02,WeatherDisplay:10.37,2013-08-17 04:11:00,
2013-08-16 23:16:00,73.0,58.8,29.43,East,90,4.0,4.0,61,0.00,CLR,,0.02,WeatherDisplay:10.37,2013-08-17 04:16:00,
2013-08-16 23:21:00,73.0,58.8,29.44,East,90,5.8,5.8,61,0.00,CLR,,0.02,WeatherDisplay:10.37,2013-08-17 04:21:00,
2013-08-16 23:26:00,73.0,58.8,29.44,East,90,5.8,5.8,61,0.00,CLR,,0.02,WeatherDisplay:10.37,2013-08-17 04:26:00,
2013-08-16 23:31:00,72.0,57.8,29.44,SE,135,5.8,5.8,61,0.00,CLR,,0.02,WeatherDisplay:10.37,2013-08-17 04:31:00,
2013-08-16 23:36:00,72.0,57.8,29.44,East,90,6.9,6.9,61,0.00,CLR,,0.02,WeatherDisplay:10.37,2013-08-17 04:36:00,
2013-08-16 23:41:00,72.0,57.8,29.44,East,90,5.8,5.8,61,0.00,CLR,,0.02,WeatherDisplay:10.37,2013-08-17 04:41:00,
2013-08-16 23:46:00,72.0,57.8,29.44,East,90,11.5,11.6,61,0.00,CLR,,0.02,WeatherDisplay:10.37,2013-08-17 04:46:00,
2013-08-16 23:51:00,72.0,58.3,29.44,East,90,6.9,6.9,62,0.00,CLR,,0.02,WeatherDisplay:10.37,2013-08-17 04:51:00,
2013-08-16 23:56:00,72.0,58.7,29.45,East,90,5.0,5.0,63,0.00,CLR,,0.02,WeatherDisplay:10.37,2013-08-17 04:56:00,